This is the latest recevied weather packets stored in our database for station/object W2MMD-13. If no packets are shown the sender has not sent any weather packets the latest 10 day(s).
| Time | Temp. | Humidity | Pressure | Rain* | Wind** | Luminosity | Snow |
|---|---|---|---|---|---|---|---|
| 1778176120 | 18.33° C | 46% | - | 0 mm | - | - | - |
| 1778175533 | 18.89° C | 46% | - | 0 mm | - | - | - |
| 1778175520 | 18.33° C | 46% | - | 0 mm | - | - | - |
| 1778174920 | 17.22° C | 47% | - | 0 mm | - | - | - |
| 1778174320 | 17.78° C | 45% | - | 0 mm | - | - | - |
| 1778173720 | 17.78° C | 48% | - | 0 mm | - | - | - |
| 1778173131 | 17.78° C | 50% | - | 0 mm | - | - | - |
| 1778173120 | 17.78° C | 49% | - | 0 mm | - | - | - |
| 1778172520 | 17.78° C | 52% | - | 0 mm | - | - | - |
| 1778171919 | 16.67° C | 54% | - | 0 mm | - | - | - |
| 1778171319 | 15.56° C | 56% | - | 0 mm | - | - | - |
| 1778170719 | 15.56° C | 55% | - | 0 mm | - | - | - |
| 1778170130 | 15° C | 60% | - | 0 mm | - | - | - |
| 1778170119 | 15° C | 60% | - | 0 mm | - | - | - |
| 1778169519 | 14.44° C | 60% | - | 0 mm | - | - | - |
| 1778168931 | 14.44° C | 59% | - | 0 mm | - | - | - |
| 1778168919 | 14.44° C | 60% | - | 0 mm | - | - | - |
| 1778168319 | 15° C | 59% | - | 0 mm | - | - | - |
| 1778167719 | 14.44° C | 62% | - | 0 mm | - | - | - |
| 1778167130 | 15° C | 61% | - | 0 mm | - | - | - |
| 1778167119 | 15° C | 61% | - | 0 mm | - | - | - |
| 1778166519 | 14.44° C | 61% | - | 0 mm | - | - | - |
| 1778165931 | 13.89° C | 62% | - | 0 mm | - | - | - |
| 1778165919 | 13.89° C | 61% | - | 0 mm | - | - | - |
| 1778165319 | 13.89° C | 61% | - | 0 mm | - | - | - |
* Rain latest hour (hover to see other rain measurements)
** Current wind speed in m/s (hover to see current wind gust speed)